Time;durP1;ratioP1;P1;durP2;ratioP2;P2;SDS_P1;SDS_P2;PMS_P1;PMS_P2;Temp;Humidity;BMP_temperature;BMP_pressure;BME280_temperature;BME280_humidity;BME280_pressure;Samples;Min_cycle;Max_cycle;Signal;HPM_P1;HPM_P2
2024/01/25 00:01:34;;;;;;;4.47;0.70;;;;;;;9.04;79.79;101024.19;5073408;28;21046;-68
2024/01/25 00:04:00;;;;;;;3.40;1.07;;;;;;;9.03;79.71;101019.03;5074071;28;20917;-69
2024/01/25 00:06:27;;;;;;;2.30;0.57;;;;;;;8.99;80.21;101039.63;5073798;28;20430;-68
2024/01/25 00:08:53;;;;;;;11.33;1.27;;;;;;;8.95;80.99;101028.56;5073679;28;20505;-68
2024/01/25 00:11:20;;;;;;;2.30;0.60;;;;;;;9.00;80.76;101043.94;5073712;28;20473;-69
2024/01/25 00:13:47;;;;;;;2.47;0.50;;;;;;;8.94;81.19;101045.03;5073619;28;20529;-68
2024/01/25 00:16:13;;;;;;;3.60;0.97;;;;;;;8.92;81.41;101056.13;5073488;28;20534;-68
2024/01/25 00:18:41;;;;;;;2.07;0.60;;;;;;;8.91;81.61;101051.81;5073363;28;20977;-68
2024/01/25 00:21:08;;;;;;;1.93;0.63;;;;;;;8.98;81.51;101049.59;5073547;28;20438;-68
2024/01/25 00:23:35;;;;;;;2.03;0.63;;;;;;;8.93;81.55;101046.13;5073595;28;20499;-68
2024/01/25 00:26:01;;;;;;;6.63;0.60;;;;;;;8.95;81.41;101052.06;5073904;28;20516;-68
2024/01/25 00:28:29;;;;;;;6.00;1.00;;;;;;;8.98;81.17;101046.09;5073888;28;20485;-68
2024/01/25 00:30:55;;;;;;;5.43;0.93;;;;;;;8.98;81.17;101048.81;5073737;28;20442;-67
2024/01/25 00:33:22;;;;;;;4.47;0.97;;;;;;;8.92;81.59;101041.81;5073536;28;20457;-68
2024/01/25 00:35:51;;;;;;;2.83;1.07;;;;;;;8.88;81.60;101054.25;5073698;28;20564;-69
2024/01/25 00:38:18;;;;;;;6.77;1.03;;;;;;;8.97;80.80;101044.50;5077208;28;20433;-69
2024/01/25 00:40:45;;;;;;;2.27;0.83;;;;;;;8.99;80.84;101062.06;5078223;28;20437;-69
2024/01/25 00:43:12;;;;;;;4.17;1.40;;;;;;;9.04;80.43;101074.72;5077148;28;20487;-70
2024/01/25 00:45:40;;;;;;;2.17;0.73;;;;;;;9.07;80.41;101066.88;5077476;28;20424;-67
2024/01/25 00:48:08;;;;;;;2.60;0.73;;;;;;;9.03;80.74;101075.78;5076945;28;20441;-67
2024/01/25 00:50:35;;;;;;;2.13;0.60;;;;;;;8.94;81.16;101085.56;5077554;28;20476;-67
2024/01/25 00:53:03;;;;;;;1.80;0.50;;;;;;;8.97;81.38;101095.81;5077134;28;20461;-67
2024/01/25 00:55:30;;;;;;;2.43;0.67;;;;;;;9.03;80.40;101102.81;5077370;28;20560;-67
2024/01/25 00:57:59;;;;;;;1.93;0.43;;;;;;;9.07;80.07;101109.28;5077044;28;20437;-69
2024/01/25 01:00:27;;;;;;;6.30;0.63;;;;;;;9.06;80.58;101107.66;5076665;28;20444;-69
2024/01/25 01:02:54;;;;;;;1.70;0.50;;;;;;;9.00;80.52;101152.03;5076571;28;20968;-70
2024/01/25 01:05:21;;;;;;;2.43;0.50;;;;;;;9.03;80.11;101106.34;5077067;28;20925;-70
2024/01/25 01:07:48;;;;;;;3.13;1.03;;;;;;;8.99;80.48;101110.69;5077440;28;20439;-69
2024/01/25 01:10:16;;;;;;;3.03;0.90;;;;;;;8.98;80.14;101089.31;5077140;28;20525;-70
2024/01/25 01:12:43;;;;;;;3.00;0.77;;;;;;;8.99;79.73;101099.88;5076794;28;20552;-68
2024/01/25 01:15:10;;;;;;;3.87;0.53;;;;;;;9.02;79.85;101120.13;5076356;28;20844;-68
2024/01/25 01:17:37;;;;;;;1.80;0.50;;;;;;;9.04;79.78;101118.75;5076379;28;20507;-68
2024/01/25 01:20:04;;;;;;;2.07;0.70;;;;;;;9.00;79.98;101112.28;5076398;28;20481;-68
2024/01/25 01:22:31;;;;;;;2.17;0.60;;;;;;;8.96;80.43;101113.94;5076522;28;20548;-67
2024/01/25 01:24:57;;;;;;;1.80;0.50;;;;;;;9.01;79.95;101121.22;5077030;28;20512;-68
2024/01/25 01:27:25;;;;;;;2.83;0.77;;;;;;;9.01;79.88;101130.13;5076528;28;20437;-68
2024/01/25 01:29:52;;;;;;;1.90;0.63;;;;;;;9.08;79.58;101130.63;5076692;28;20475;-68
2024/01/25 01:32:18;;;;;;;3.70;0.70;;;;;;;9.03;79.79;101127.13;5076295;28;20465;-68
2024/01/25 01:34:45;;;;;;;1.70;0.50;;;;;;;8.99;80.60;101131.50;5076435;28;20520;-68
2024/01/25 01:37:12;;;;;;;16.03;1.27;;;;;;;8.99;79.87;101134.19;5076714;28;20521;-68
2024/01/25 01:39:38;;;;;;;2.20;0.90;;;;;;;9.00;79.74;101127.69;5076594;28;20524;-68
2024/01/25 01:42:05;;;;;;;2.67;0.97;;;;;;;9.03;79.65;101140.63;5076458;28;20546;-68
2024/01/25 01:44:33;;;;;;;1.80;0.50;;;;;;;8.97;79.99;101153.38;5075917;28;20544;-67
2024/01/25 01:47:00;;;;;;;2.67;0.80;;;;;;;8.98;80.11;101152.28;5075439;28;20437;-66
2024/01/25 01:49:27;;;;;;;2.10;0.60;;;;;;;8.99;80.09;101153.91;5075200;28;20437;-67
2024/01/25 01:51:55;;;;;;;2.13;0.40;;;;;;;8.95;80.22;101143.94;5075912;28;20980;-66
2024/01/25 01:54:21;;;;;;;2.10;0.80;;;;;;;8.90;80.41;101152.88;5075686;28;20452;-67
2024/01/25 01:56:49;;;;;;;2.30;0.60;;;;;;;8.91;80.21;101140.97;5076166;28;20512;-67
2024/01/25 01:59:17;;;;;;;1.70;0.50;;;;;;;8.87;80.42;101139.91;5075915;28;20451;-67
2024/01/25 02:01:45;;;;;;;3.40;1.17;;;;;;;8.88;80.71;101146.91;5075639;28;20465;-68
2024/01/25 02:04:11;;;;;;;2.10;0.70;;;;;;;8.96;79.94;101143.66;5075846;28;20459;-67
2024/01/25 02:06:38;;;;;;;3.53;0.90;;;;;;;8.91;80.17;101145.56;5075872;28;20469;-67
2024/01/25 02:09:05;;;;;;;2.30;0.77;;;;;;;8.85;80.30;101174.47;5075454;28;20473;-67
2024/01/25 02:11:32;;;;;;;2.20;0.70;;;;;;;8.83;80.29;101142.34;5075999;28;20544;-68
2024/01/25 02:13:59;;;;;;;1.83;0.47;;;;;;;8.87;80.56;101144.50;5075839;28;20449;-66
2024/01/25 02:16:25;;;;;;;2.60;1.00;;;;;;;8.74;81.13;101145.88;5075812;28;20904;-68
2024/01/25 02:18:57;;;;;;;2.17;0.50;;;;;;;8.71;81.02;101149.94;5075790;28;20512;-68
2024/01/25 02:21:23;;;;;;;3.60;0.63;;;;;;;8.81;80.48;101152.63;5076156;28;20495;-67
2024/01/25 02:23:52;;;;;;;2.73;0.77;;;;;;;8.81;80.90;101144.53;5075804;28;20469;-67
2024/01/25 02:26:18;;;;;;;3.67;0.77;;;;;;;8.79;80.75;101141.28;5075785;28;20854;-68
2024/01/25 02:28:45;;;;;;;3.50;0.77;;;;;;;8.77;80.91;101140.75;5075067;28;20505;-67
2024/01/25 02:31:12;;;;;;;2.00;0.60;;;;;;;8.82;80.70;101132.63;5074974;28;21039;-67
2024/01/25 02:33:38;;;;;;;1.90;0.63;;;;;;;8.77;80.91;101140.75;5075419;28;20520;-68
2024/01/25 02:36:06;;;;;;;2.30;0.70;;;;;;;8.77;81.20;101145.34;5074914;28;20568;-68
2024/01/25 02:38:32;;;;;;;13.63;1.13;;;;;;;8.77;81.37;101146.16;5075000;28;20452;-68
2024/01/25 02:41:00;;;;;;;9.90;0.93;;;;;;;8.71;82.12;101147.22;5074851;28;20472;-66
2024/01/25 02:43:27;;;;;;;1.60;0.40;;;;;;;8.71;82.00;101141.03;5074780;28;20576;-67
2024/01/25 02:45:54;;;;;;;2.13;0.80;;;;;;;8.68;82.20;101145.09;5075018;28;20433;-67
2024/01/25 02:48:20;;;;;;;3.50;0.97;;;;;;;8.64;82.52;101135.13;5074941;28;20474;-67
2024/01/25 02:50:47;;;;;;;1.93;0.60;;;;;;;8.66;81.89;101152.66;5075319;28;20572;-68
2024/01/25 02:53:13;;;;;;;1.70;0.40;;;;;;;8.68;81.51;101145.09;5075148;28;20510;-68
2024/01/25 02:55:40;;;;;;;2.00;0.50;;;;;;;8.69;81.31;101154.00;5074871;28;20477;-67
2024/01/25 02:58:08;;;;;;;1.77;0.60;;;;;;;8.67;80.94;101158.84;5075107;28;20453;-67
2024/01/25 03:00:35;;;;;;;5.50;1.27;;;;;;;8.68;80.75;101150.50;5074309;28;20945;-67
2024/01/25 03:03:01;;;;;;;1.77;0.57;;;;;;;8.64;81.38;101162.94;5074620;28;20495;-67
2024/01/25 03:05:28;;;;;;;3.20;0.70;;;;;;;8.62;81.30;101175.06;5074550;28;20937;-67
2024/01/25 03:07:54;;;;;;;1.90;0.60;;;;;;;8.65;80.48;101152.94;5074839;28;20463;-67
2024/01/25 03:10:21;;;;;;;3.00;0.50;;;;;;;8.60;80.96;101153.75;5074936;28;20992;-67
2024/01/25 03:12:48;;;;;;;1.70;0.50;;;;;;;8.65;80.54;101153.75;5074117;28;21044;-67
2024/01/25 03:15:16;;;;;;;2.57;0.83;;;;;;;8.71;79.96;101147.22;5074751;28;20577;-67
2024/01/25 03:17:43;;;;;;;5.70;0.93;;;;;;;8.62;81.51;101154.28;5074440;28;20581;-67
2024/01/25 03:20:10;;;;;;;3.10;1.03;;;;;;;8.59;80.36;101155.66;5074754;28;20833;-67
2024/01/25 03:22:37;;;;;;;2.20;0.57;;;;;;;8.62;80.17;101169.69;5074272;28;20550;-67
2024/01/25 03:25:04;;;;;;;1.70;0.50;;;;;;;8.64;79.58;101144.03;5074266;28;20434;-68
2024/01/25 03:27:30;;;;;;;2.07;0.50;;;;;;;8.62;80.02;101162.38;5074122;28;20531;-68
2024/01/25 03:29:58;;;;;;;3.03;0.83;;;;;;;8.60;80.43;101172.66;5074244;28;20528;-68
2024/01/25 03:32:26;;;;;;;2.97;0.70;;;;;;;8.57;80.07;101178.59;5074098;28;20472;-68
2024/01/25 03:34:52;;;;;;;1.83;0.50;;;;;;;8.58;80.11;101186.41;5074197;28;20444;-68
2024/01/25 03:37:19;;;;;;;2.87;0.80;;;;;;;8.54;80.60;101177.28;5073645;28;20846;-68
2024/01/25 03:39:45;;;;;;;2.20;0.60;;;;;;;8.50;80.36;101167.25;5074170;28;20925;-67
2024/01/25 03:42:12;;;;;;;1.80;0.50;;;;;;;8.49;81.00;101184.53;5073620;28;20980;-68
2024/01/25 03:44:42;;;;;;;2.27;0.50;;;;;;;8.54;80.70;101168.34;5073666;28;20540;-67
2024/01/25 03:47:08;;;;;;;2.47;0.80;;;;;;;8.56;80.42;101172.41;5073907;28;20441;-67
2024/01/25 03:49:36;;;;;;;2.10;0.57;;;;;;;8.55;80.75;101180.78;5073560;28;20442;-68
2024/01/25 03:52:03;;;;;;;2.20;0.60;;;;;;;8.52;80.02;101168.63;5074087;28;20878;-68
2024/01/25 03:54:30;;;;;;;2.27;0.87;;;;;;;8.51;80.25;101166.19;5073809;28;20469;-68
2024/01/25 03:56:57;;;;;;;2.50;0.70;;;;;;;8.51;80.34;101174.31;5073497;28;20605;-67
2024/01/25 03:59:23;;;;;;;1.60;0.40;;;;;;;8.51;80.57;101185.91;5073695;28;20469;-67
2024/01/25 04:01:50;;;;;;;2.40;0.70;;;;;;;8.55;80.87;101186.19;5074105;28;20540;-67
2024/01/25 04:04:17;;;;;;;2.33;0.50;;;;;;;8.48;80.60;101175.63;5073390;28;20805;-67
2024/01/25 04:06:46;;;;;;;3.00;0.70;;;;;;;8.46;81.08;101179.72;5073626;28;20429;-68
2024/01/25 04:09:15;;;;;;;2.00;0.70;;;;;;;8.45;80.85;101180.75;5073624;28;20449;-67
2024/01/25 04:11:42;;;;;;;2.07;0.50;;;;;;;8.42;81.42;101186.72;5072807;28;20465;-67
2024/01/25 04:14:08;;;;;;;6.40;0.60;;;;;;;8.43;81.25;101188.34;5073849;28;20522;-67
2024/01/25 04:16:35;;;;;;;2.33;0.80;;;;;;;8.44;81.16;101198.06;5073453;28;20513;-67
2024/01/25 04:19:02;;;;;;;1.80;0.50;;;;;;;8.43;80.84;101199.94;5073141;28;20437;-67
2024/01/25 04:21:29;;;;;;;1.73;0.40;;;;;;;8.45;81.47;101207.75;5073434;28;20469;-67
2024/01/25 04:23:57;;;;;;;1.80;0.60;;;;;;;8.44;81.36;101219.66;5073438;28;20525;-67
2024/01/25 04:26:23;;;;;;;2.07;0.70;;;;;;;8.42;81.17;101213.72;5073359;28;20461;-67
2024/01/25 04:28:50;;;;;;;3.20;0.83;;;;;;;8.44;81.74;101219.66;5073373;28;20520;-67
2024/01/25 04:31:17;;;;;;;3.20;0.97;;;;;;;8.41;82.06;101225.59;5073303;28;20437;-67
2024/01/25 04:33:43;;;;;;;2.83;0.80;;;;;;;8.40;81.52;101210.47;5073381;28;20465;-67
2024/01/25 04:36:10;;;;;;;7.83;1.43;;;;;;;8.41;81.68;101201.28;5073289;28;20518;-67
2024/01/25 04:38:37;;;;;;;2.20;0.87;;;;;;;8.38;81.81;101215.34;5073015;28;20955;-66
2024/01/25 04:41:05;;;;;;;2.13;0.60;;;;;;;8.40;81.43;101213.16;5073272;28;20528;-66
2024/01/25 04:43:35;;;;;;;5.23;1.17;;;;;;;8.41;81.23;101239.06;5072694;28;20495;-67
2024/01/25 04:46:02;;;;;;;3.30;0.90;;;;;;;8.41;81.52;101233.69;5072892;28;20782;-67
2024/01/25 04:48:29;;;;;;;3.17;1.00;;;;;;;8.38;81.69;101240.44;5073285;28;20779;-67
2024/01/25 04:50:57;;;;;;;2.07;0.50;;;;;;;8.40;81.55;101249.06;5073168;28;20520;-67
2024/01/25 04:53:23;;;;;;;1.80;0.53;;;;;;;8.37;81.73;101259.59;5073235;28;20827;-67
2024/01/25 04:55:50;;;;;;;1.97;0.77;;;;;;;8.41;82.19;101260.66;5073007;28;20523;-66
2024/01/25 04:58:18;;;;;;;6.37;0.67;;;;;;;8.41;82.27;101245.31;5072685;28;20864;-66
2024/01/25 05:00:45;;;;;;;1.70;0.43;;;;;;;8.36;82.58;101245.25;5073194;28;20451;-67
2024/01/25 05:03:11;;;;;;;3.60;0.47;;;;;;;8.34;82.37;101264.44;5072661;28;20901;-67
2024/01/25 05:05:38;;;;;;;1.70;0.47;;;;;;;8.29;82.44;101264.44;5073238;28;20473;-67
2024/01/25 05:08:05;;;;;;;1.67;0.47;;;;;;;8.33;82.35;101289.00;5073383;28;20442;-67
2024/01/25 05:10:32;;;;;;;12.13;1.50;;;;;;;8.36;82.28;101258.75;5073145;28;20520;-66
2024/01/25 05:12:58;;;;;;;3.17;1.00;;;;;;;8.34;82.38;101263.63;5073168;28;20540;-67
2024/01/25 05:15:26;;;;;;;2.47;0.60;;;;;;;8.27;82.95;101276.56;5072833;28;20882;-67
2024/01/25 05:17:53;;;;;;;7.93;1.17;;;;;;;8.30;82.59;101279.53;5072800;28;20855;-66
2024/01/25 05:20:19;;;;;;;3.30;1.20;;;;;;;8.31;82.33;101289.25;5072740;28;20533;-67
2024/01/25 05:22:46;;;;;;;17.57;1.20;;;;;;;8.34;81.77;101294.13;5074453;28;20460;-67
2024/01/25 05:25:13;;;;;;;3.00;1.07;;;;;;;8.26;81.97;101291.94;5076585;28;20587;-67
2024/01/25 05:27:39;;;;;;;1.97;0.67;;;;;;;8.34;80.87;101282.53;5076405;28;20471;-68
2024/01/25 05:30:08;;;;;;;3.50;0.80;;;;;;;8.35;80.00;101268.75;5076449;28;20437;-66
2024/01/25 05:32:36;;;;;;;1.77;0.60;;;;;;;8.37;79.66;101283.88;5076185;28;20501;-67
2024/01/25 05:35:03;;;;;;;1.60;0.40;;;;;;;8.43;79.12;101321.44;5076138;28;20441;-68
2024/01/25 05:37:30;;;;;;;3.07;0.67;;;;;;;8.39;79.24;101306.84;5076331;28;20484;-68
2024/01/25 05:39:56;;;;;;;1.80;0.53;;;;;;;8.46;79.05;101306.59;5076190;28;20824;-68
2024/01/25 05:42:23;;;;;;;1.60;0.40;;;;;;;8.45;78.93;101319.25;5075622;28;20543;-67
2024/01/25 05:44:50;;;;;;;4.43;0.70;;;;;;;8.44;79.11;101308.72;5088868;22;20497;-69
2024/01/25 05:47:17;;;;;;;6.93;0.93;;;;;;;8.41;79.53;101317.38;5076068;28;20809;-68
2024/01/25 05:49:45;;;;;;;1.60;0.40;;;;;;;8.50;78.36;101327.38;5075429;28;20528;-69
2024/01/25 05:52:12;;;;;;;2.30;0.70;;;;;;;8.51;78.04;101336.28;5075340;28;20472;-69
2024/01/25 05:54:38;;;;;;;4.37;0.80;;;;;;;8.48;78.30;101318.72;5075830;28;20487;-69
2024/01/25 05:57:05;;;;;;;2.23;0.60;;;;;;;8.46;78.82;101328.19;5075813;28;20483;-69
2024/01/25 05:59:32;;;;;;;3.93;0.50;;;;;;;8.43;79.21;101318.72;5075699;28;20441;-69
2024/01/25 06:01:58;;;;;;;4.07;0.80;;;;;;;8.40;79.77;101331.94;5076059;28;20544;-69
2024/01/25 06:04:25;;;;;;;2.70;0.70;;;;;;;8.46;79.47;101339.00;5076198;28;20434;-69
2024/01/25 06:06:53;;;;;;;2.57;0.77;;;;;;;8.41;79.41;101347.91;5075909;28;20494;-69
2024/01/25 06:09:20;;;;;;;6.43;0.80;;;;;;;8.45;79.62;101348.94;5075881;28;20449;-69
2024/01/25 06:11:47;;;;;;;2.00;0.73;;;;;;;8.44;79.68;101351.94;5075412;28;20504;-69
2024/01/25 06:14:13;;;;;;;1.93;0.77;;;;;;;8.46;79.26;101349.78;5076101;28;20972;-69
2024/01/25 06:16:40;;;;;;;1.87;0.60;;;;;;;8.45;78.81;101340.84;5075650;28;20507;-69
2024/01/25 06:19:07;;;;;;;3.10;0.60;;;;;;;8.46;78.29;101347.91;5075612;28;20865;-69
2024/01/25 06:21:35;;;;;;;3.00;0.80;;;;;;;8.40;78.38;101348.94;5075211;28;20988;-69
2024/01/25 06:24:03;;;;;;;1.70;0.40;;;;;;;8.41;78.69;101366.78;5075674;28;20446;-69
2024/01/25 06:26:30;;;;;;;5.07;1.00;;;;;;;8.40;78.54;101377.84;5075137;28;20524;-69
2024/01/25 06:28:57;;;;;;;2.30;0.90;;;;;;;8.42;78.24;101371.09;5075348;28;20862;-69
2024/01/25 06:31:25;;;;;;;1.60;0.40;;;;;;;8.45;78.38;101389.44;5074961;28;20441;-68
2024/01/25 06:33:52;;;;;;;1.60;0.40;;;;;;;8.42;78.27;101376.50;5074169;28;20441;-68
2024/01/25 06:36:19;;;;;;;7.53;1.10;;;;;;;8.38;78.59;101372.72;5075517;28;20531;-68
2024/01/25 06:38:46;;;;;;;1.60;0.30;;;;;;;8.37;78.60;101372.97;5075612;28;20437;-68
2024/01/25 06:41:14;;;;;;;2.07;0.60;;;;;;;8.38;78.46;101382.72;5074836;28;20849;-68
2024/01/25 06:43:41;;;;;;;2.60;0.77;;;;;;;8.31;79.22;101372.91;5075260;28;20595;-69
2024/01/25 06:46:08;;;;;;;1.80;0.50;;;;;;;8.29;78.70;101401.28;5074925;28;20532;-69
2024/01/25 06:48:35;;;;;;;2.50;0.80;;;;;;;8.27;79.24;101384.50;5075011;28;20441;-68
2024/01/25 06:51:02;;;;;;;1.60;0.40;;;;;;;8.31;78.92;101394.50;5074664;28;20934;-68
2024/01/25 06:53:29;;;;;;;3.47;0.90;;;;;;;8.38;78.15;101401.59;5074552;28;20461;-71
2024/01/25 06:55:56;;;;;;;5.87;0.83;;;;;;;8.35;77.47;101387.50;5074848;28;20483;-70
2024/01/25 06:58:24;;;;;;;1.60;0.40;;;;;;;8.31;78.21;101410.72;5074718;28;20516;-70
2024/01/25 07:00:50;;;;;;;3.20;1.30;;;;;;;8.40;77.85;101412.94;5074965;28;20525;-70
2024/01/25 07:03:17;;;;;;;1.97;0.50;;;;;;;8.37;78.23;101416.16;5074600;28;20461;-70
2024/01/25 07:05:44;;;;;;;5.00;0.63;;;;;;;8.40;78.53;101437.22;5074737;28;20528;-70
2024/01/25 07:08:13;;;;;;;2.70;0.90;;;;;;;8.39;78.26;101430.22;5074921;28;20546;-69
2024/01/25 07:10:40;;;;;;;1.60;0.40;;;;;;;8.45;78.10;101434.53;5075082;28;20437;-73
2024/01/25 07:13:06;;;;;;;2.47;0.57;;;;;;;8.41;78.92;101444.25;5075066;28;20465;-72
2024/01/25 07:15:34;;;;;;;3.07;0.93;;;;;;;8.43;78.67;101442.91;5074660;28;20516;-72
2024/01/25 07:18:01;;;;;;;2.00;0.60;;;;;;;8.42;78.88;101440.50;5074651;28;20850;-70
2024/01/25 07:20:28;;;;;;;1.90;0.60;;;;;;;8.46;78.54;101446.97;5074555;28;20537;-70
2024/01/25 07:22:54;;;;;;;1.60;0.47;;;;;;;8.44;79.09;101447.22;5074399;28;20544;-70
2024/01/25 07:25:21;;;;;;;1.60;0.30;;;;;;;8.46;78.89;101458.59;5074005;28;20805;-68
2024/01/25 07:27:49;;;;;;;2.33;0.50;;;;;;;8.48;78.95;101455.63;5074218;28;20433;-71
2024/01/25 07:30:16;;;;;;;4.23;0.83;;;;;;;8.46;78.81;101453.19;5074214;28;20441;-70
2024/01/25 07:32:45;;;;;;;2.47;0.87;;;;;;;8.49;78.80;101460.72;5074066;28;20450;-70
2024/01/25 07:35:12;;;;;;;5.30;1.10;;;;;;;8.54;78.42;101493.19;5073807;28;20979;-71
2024/01/25 07:37:39;;;;;;;1.70;0.50;;;;;;;8.48;78.42;101466.41;5074050;28;20504;-70
2024/01/25 07:40:07;;;;;;;1.60;0.40;;;;;;;8.51;78.86;101495.59;5073717;28;20445;-69
2024/01/25 07:42:34;;;;;;;5.83;1.33;;;;;;;8.43;79.15;101518.50;5073570;28;20518;-70
2024/01/25 07:45:01;;;;;;;1.70;0.50;;;;;;;8.45;78.81;101499.31;5073794;28;20540;-69
2024/01/25 07:47:27;;;;;;;1.90;0.50;;;;;;;8.44;79.37;101493.13;5073932;28;20434;-70
2024/01/25 07:49:55;;;;;;;3.00;0.57;;;;;;;8.47;78.91;101511.50;5073843;28;20510;-73
2024/01/25 07:52:22;;;;;;;1.60;0.40;;;;;;;8.45;78.90;101504.72;5073689;28;20886;-69
2024/01/25 07:54:48;;;;;;;4.43;1.10;;;;;;;8.44;78.93;101512.03;5073822;28;20437;-69
2024/01/25 07:57:15;;;;;;;1.70;0.60;;;;;;;8.43;79.16;101509.59;5073421;28;20568;-69
2024/01/25 07:59:42;;;;;;;1.60;0.40;;;;;;;8.43;79.10;101506.91;5073668;28;20520;-69
2024/01/25 08:02:08;;;;;;;7.80;1.67;;;;;;;8.44;78.46;101508.50;5073440;28;20454;-70
2024/01/25 08:04:35;;;;;;;3.43;0.97;;;;;;;8.46;78.03;101550.38;5074089;28;20444;-69
2024/01/25 08:07:03;;;;;;;3.47;0.70;;;;;;;8.41;78.59;101527.94;5073690;28;20528;-67
2024/01/25 08:09:29;;;;;;;1.80;0.50;;;;;;;8.45;78.58;101534.44;5073700;28;20441;-68
2024/01/25 08:11:56;;;;;;;2.10;0.80;;;;;;;8.45;78.98;101539.81;5073584;28;20537;-70
2024/01/25 08:14:23;;;;;;;1.67;0.43;;;;;;;8.38;79.09;101541.97;5073334;28;20787;-68
2024/01/25 08:16:49;;;;;;;2.90;0.70;;;;;;;8.41;78.57;101547.66;5073533;28;20523;-70
2024/01/25 08:19:16;;;;;;;2.53;0.60;;;;;;;8.42;79.31;101537.66;5073544;28;20525;-69
2024/01/25 08:21:42;;;;;;;1.60;0.50;;;;;;;8.41;79.40;101568.41;5073923;28;20548;-69
2024/01/25 08:24:10;;;;;;;3.30;1.00;;;;;;;8.44;79.17;101559.81;5073506;28;20469;-70
2024/01/25 08:26:37;;;;;;;2.93;0.73;;;;;;;8.52;78.70;101553.91;5073403;28;20446;-69
2024/01/25 08:29:03;;;;;;;2.77;0.47;;;;;;;8.54;78.33;101558.00;5073106;28;20786;-70
2024/01/25 08:31:30;;;;;;;2.53;0.90;;;;;;;8.49;78.48;101562.53;5073344;28;20501;-70
2024/01/25 08:33:57;;;;;;;2.00;0.73;;;;;;;8.39;78.87;101562.50;5073140;28;20479;-72
2024/01/25 08:36:24;;;;;;;3.60;0.70;;;;;;;8.48;78.68;101569.00;5073370;28;20941;-70
2024/01/25 08:38:51;;;;;;;5.23;0.60;;;;;;;8.50;78.71;101583.88;5073096;28;20493;-69
2024/01/25 08:41:19;;;;;;;2.50;0.53;;;;;;;8.49;78.46;101581.44;5073530;28;20447;-68
2024/01/25 08:43:46;;;;;;;2.60;0.97;;;;;;;8.43;79.03;101580.59;5072991;28;20548;-68
2024/01/25 08:46:14;;;;;;;1.93;0.60;;;;;;;8.49;78.47;101576.84;5073756;28;20460;-69
2024/01/25 08:48:41;;;;;;;1.70;0.73;;;;;;;8.48;78.62;101552.81;5073213;28;20983;-71
2024/01/25 08:51:09;;;;;;;1.97;0.53;;;;;;;8.48;78.98;101585.22;5073282;28;20518;-71
2024/01/25 08:53:35;;;;;;;3.30;0.60;;;;;;;8.53;78.08;101577.13;5073675;28;20483;-73
2024/01/25 08:56:02;;;;;;;1.60;0.40;;;;;;;8.53;78.30;101579.84;5073302;28;20447;-73
2024/01/25 08:58:30;;;;;;;1.90;0.80;;;;;;;8.51;78.65;101584.69;5076194;28;20477;-73
2024/01/25 09:00:56;;;;;;;2.80;0.70;;;;;;;8.57;78.70;101589.84;5077240;28;20516;-71
2024/01/25 09:03:23;;;;;;;1.60;0.37;;;;;;;8.60;78.42;101599.31;5077040;28;20825;-72
2024/01/25 09:05:50;;;;;;;4.33;1.03;;;;;;;8.58;78.11;101614.97;5076937;28;20862;-71
2024/01/25 09:08:16;;;;;;;2.10;0.43;;;;;;;8.46;79.12;101598.97;5077373;28;20461;-71
2024/01/25 09:10:44;;;;;;;1.73;0.47;;;;;;;8.46;79.16;101617.06;5077065;28;20528;-73
2024/01/25 09:13:11;;;;;;;7.10;1.30;;;;;;;8.49;79.08;101609.25;5076800;28;20478;-72
2024/01/25 09:15:39;;;;;;;2.80;0.50;;;;;;;8.50;79.33;101612.75;5076515;28;20929;-71
2024/01/25 09:18:06;;;;;;;2.10;0.60;;;;;;;8.52;80.05;101616.81;5077031;28;20481;-71
2024/01/25 09:20:32;;;;;;;2.90;1.00;;;;;;;8.62;78.57;101628.75;5076740;28;20467;-72
2024/01/25 09:22:59;;;;;;;8.00;0.70;;;;;;;8.59;78.84;101630.91;5076577;28;20715;-72
2024/01/25 09:25:26;;;;;;;1.90;0.57;;;;;;;8.63;78.59;101630.38;5076631;28;20451;-71
2024/01/25 09:27:53;;;;;;;1.60;0.40;;;;;;;8.62;78.56;101640.38;5076756;28;20442;-71
2024/01/25 09:30:20;;;;;;;1.90;0.60;;;;;;;8.58;78.77;101641.97;5076542;28;20494;-71
2024/01/25 09:32:49;;;;;;;5.03;0.83;;;;;;;8.51;79.33;101639.50;5076347;28;20544;-70
2024/01/25 09:35:15;;;;;;;2.20;0.60;;;;;;;8.53;79.84;101633.84;5076818;28;20441;-70
2024/01/25 09:37:42;;;;;;;2.57;0.60;;;;;;;8.53;79.42;101653.53;5076066;28;20481;-71
2024/01/25 09:40:10;;;;;;;5.00;0.73;;;;;;;8.57;79.60;101632.25;5076939;28;20479;-72
2024/01/25 09:42:37;;;;;;;2.53;0.50;;;;;;;8.62;79.05;101650.34;5076334;28;20461;-71
2024/01/25 09:45:08;;;;;;;1.60;0.40;;;;;;;8.58;79.20;101644.66;5075953;28;20453;-70
2024/01/25 09:47:34;;;;;;;5.43;0.93;;;;;;;8.56;79.54;101641.41;5076261;28;20425;-70
2024/01/25 09:50:04;;;;;;;1.70;0.50;;;;;;;8.55;79.91;101661.41;5076141;28;20451;-69
2024/01/25 09:52:31;;;;;;;2.57;1.00;;;;;;;8.55;79.53;101661.41;5076087;28;20496;-69
2024/01/25 09:54:59;;;;;;;4.60;0.80;;;;;;;8.58;79.46;101661.66;5076051;28;20461;-69
2024/01/25 09:57:28;;;;;;;1.60;0.40;;;;;;;8.54;80.01;101665.16;5075999;28;20580;-70
2024/01/25 09:59:55;;;;;;;1.87;0.60;;;;;;;8.55;79.82;101670.31;5076013;28;20997;-70
2024/01/25 10:02:22;;;;;;;1.80;0.50;;;;;;;8.52;80.01;101680.81;5076412;28;20453;-70
2024/01/25 10:04:51;;;;;;;1.70;0.50;;;;;;;8.53;79.89;101679.75;5075931;28;20440;-70
2024/01/25 10:07:36;;;;;;;2.00;0.80;;;;;;;8.56;80.04;101687.34;5076132;28;20779;-70
2024/01/25 10:10:04;;;;;;;1.90;0.60;;;;;;;8.62;79.74;101680.88;5074485;28;20872;-72
2024/01/25 10:12:31;;;;;;;1.60;0.40;;;;;;;8.68;79.61;101695.25;5076024;28;20570;-71
2024/01/25 10:14:58;;;;;;;2.73;0.50;;;;;;;8.69;79.53;101694.97;5075410;28;20521;-70
2024/01/25 10:17:24;;;;;;;2.23;0.80;;;;;;;8.66;79.59;101698.19;5075205;28;20572;-71
2024/01/25 10:19:51;;;;;;;1.70;0.50;;;;;;;8.73;79.45;101693.38;5075759;28;20433;-70
2024/01/25 10:22:19;;;;;;;2.13;0.80;;;;;;;8.83;78.59;101693.44;5075668;28;20544;-71
2024/01/25 10:24:46;;;;;;;1.70;0.50;;;;;;;8.88;78.37;101702.63;5075817;28;20503;-70
2024/01/25 10:27:13;;;;;;;2.10;0.73;;;;;;;8.87;78.78;101701.03;5075486;28;20837;-70
2024/01/25 10:29:39;;;;;;;2.83;0.73;;;;;;;8.87;78.13;101699.13;5075507;28;20437;-69
2024/01/25 10:32:08;;;;;;;1.87;0.50;;;;;;;8.81;78.64;101705.59;5075674;28;20549;-69
2024/01/25 10:34:36;;;;;;;1.87;0.63;;;;;;;8.84;78.18;101702.34;5075817;28;20441;-69
2024/01/25 10:37:04;;;;;;;2.67;1.07;;;;;;;8.77;79.21;101702.59;5075266;28;20524;-69
2024/01/25 10:39:32;;;;;;;4.83;0.83;;;;;;;8.75;78.91;101714.72;5075523;28;20557;-69
2024/01/25 10:42:00;;;;;;;2.00;0.60;;;;;;;8.79;78.53;101710.44;5075485;28;20475;-69
2024/01/25 10:44:27;;;;;;;1.70;0.40;;;;;;;8.77;79.03;101709.88;5075359;28;20457;-69
2024/01/25 10:46:54;;;;;;;2.03;0.50;;;;;;;8.76;79.10;101700.94;5074757;28;20480;-70
2024/01/25 10:49:21;;;;;;;2.27;0.80;;;;;;;8.76;79.00;101714.44;5075225;28;20437;-71
2024/01/25 10:51:49;;;;;;;5.63;0.87;;;;;;;8.80;79.17;101706.66;5074969;28;20568;-70
2024/01/25 10:54:16;;;;;;;1.63;0.53;;;;;;;8.81;79.47;101706.41;5075145;28;20495;-69
2024/01/25 10:56:47;;;;;;;1.70;0.50;;;;;;;8.88;78.43;101702.63;5074910;28;20434;-71
2024/01/25 10:59:15;;;;;;;7.00;0.80;;;;;;;9.03;77.52;101710.81;5074695;28;20485;-70
2024/01/25 11:01:44;;;;;;;2.03;0.50;;;;;;;9.07;77.80;101707.34;5075325;28;20544;-74
2024/01/25 11:04:13;;;;;;;1.70;0.40;;;;;;;9.05;76.80;101711.38;5074804;28;20441;-74
2024/01/25 11:06:40;;;;;;;1.70;0.50;;;;;;;9.08;76.47;101721.69;5075175;28;20437;-74
2024/01/25 11:09:08;;;;;;;2.10;0.50;;;;;;;9.03;76.66;101706.25;5074770;28;20879;-74
2024/01/25 11:11:37;;;;;;;7.27;0.80;;;;;;;9.07;76.72;101714.63;5075052;28;20454;-75
2024/01/25 11:14:05;;;;;;;1.70;0.50;;;;;;;9.18;76.42;101712.78;5075275;28;20429;-75
2024/01/25 11:16:34;;;;;;;2.00;0.70;;;;;;;9.14;76.97;101723.31;5074545;28;20452;-75
2024/01/25 11:19:05;;;;;;;3.40;0.90;;;;;;;9.17;76.08;101714.69;5074589;28;20866;-74
2024/01/25 11:21:41;;;;;;;2.60;0.83;;;;;;;9.09;75.72;101716.00;5074167;28;20506;-74
2024/01/25 11:24:14;;;;;;;1.60;0.40;;;;;;;9.17;75.47;101719.28;5074430;28;20424;-74
2024/01/25 11:26:41;;;;;;;2.97;1.33;;;;;;;9.14;75.39;101717.09;5074095;28;20795;-74
2024/01/25 11:29:09;;;;;;;2.83;0.60;;;;;;;9.19;75.94;101722.53;5074962;28;20516;-73
2024/01/25 11:31:35;;;;;;;1.70;0.50;;;;;;;9.13;76.06;101732.50;5073800;28;20458;-74
2024/01/25 11:34:02;;;;;;;2.67;0.73;;;;;;;9.18;75.72;101727.13;5074188;28;20545;-75